createdAt,value
2019-05-07T00:01:52.650Z,9.90
2019-05-07T00:04:22.605Z,9.90
2019-05-07T00:06:52.943Z,9.90
2019-05-07T00:09:23.477Z,10.00
2019-05-07T00:11:53.605Z,10.00
2019-05-07T00:14:23.753Z,10.00
2019-05-07T00:16:53.694Z,10.00
2019-05-07T00:19:23.624Z,10.00
2019-05-07T00:21:53.505Z,10.00
2019-05-07T00:24:23.312Z,10.00
2019-05-07T00:26:53.386Z,10.10
2019-05-07T00:29:23.297Z,10.10
2019-05-07T00:31:53.123Z,10.10
2019-05-07T00:34:25.320Z,10.20
2019-05-07T00:37:16.724Z,10.10
2019-05-07T00:39:56.734Z,10.10
2019-05-07T00:42:32.710Z,10.10
2019-05-07T00:45:23.755Z,10.00
2019-05-07T00:47:52.927Z,10.10
2019-05-07T00:50:27.831Z,10.00
2019-05-07T00:52:57.737Z,9.90
2019-05-07T00:55:27.506Z,9.80
2019-05-07T00:57:57.322Z,9.70
2019-05-07T01:00:27.196Z,9.70
2019-05-07T01:02:57.010Z,9.60
2019-05-07T01:05:26.770Z,9.70
2019-05-07T01:07:56.585Z,9.70
2019-05-07T01:10:26.350Z,9.60
2019-05-07T01:12:58.903Z,9.70
2019-05-07T01:15:31.046Z,9.60
2019-05-07T01:17:57.793Z,9.50
2019-05-07T01:20:27.616Z,9.50
2019-05-07T01:22:57.392Z,9.50
2019-05-07T01:25:27.198Z,9.50
2019-05-07T01:27:56.975Z,9.50
2019-05-07T01:30:26.731Z,9.50
2019-05-07T01:33:02.787Z,9.40
2019-05-07T01:35:52.362Z,9.50
2019-05-07T01:38:22.983Z,9.50
2019-05-07T01:40:52.946Z,9.50
2019-05-07T01:43:22.813Z,9.50
2019-05-07T01:45:53.100Z,9.50
2019-05-07T01:48:23.127Z,9.50
2019-05-07T01:50:52.910Z,9.60
2019-05-07T01:53:22.904Z,9.50
2019-05-07T01:55:52.818Z,9.50
2019-05-07T01:58:22.606Z,9.50
2019-05-07T02:00:53.166Z,9.50
2019-05-07T02:03:52.811Z,9.50
2019-05-07T02:06:36.667Z,9.50
2019-05-07T02:09:22.519Z,9.50
2019-05-07T02:12:13.124Z,9.50
2019-05-07T02:14:42.714Z,9.50
2019-05-07T02:17:13.610Z,9.50
2019-05-07T02:19:43.643Z,9.40
2019-05-07T02:22:13.547Z,9.40
2019-05-07T02:24:43.542Z,9.40
2019-05-07T02:27:13.362Z,9.40
2019-05-07T02:29:43.176Z,9.40
2019-05-07T02:32:13.486Z,9.40
2019-05-07T02:34:44.466Z,9.40
2019-05-07T02:37:17.649Z,9.30
2019-05-07T02:39:53.974Z,9.30
2019-05-07T02:42:24.067Z,9.40
2019-05-07T02:45:15.966Z,9.30
2019-05-07T02:47:45.759Z,9.30
2019-05-07T02:50:22.745Z,9.30
2019-05-07T02:53:04.525Z,9.30
2019-05-07T02:55:38.527Z,9.30
2019-05-07T02:58:08.326Z,9.30
2019-05-07T03:00:38.126Z,9.20
2019-05-07T03:03:07.935Z,9.30
2019-05-07T03:05:37.724Z,9.30
2019-05-07T03:08:07.635Z,9.30
2019-05-07T03:10:37.381Z,9.20
2019-05-07T03:13:07.410Z,9.30
2019-05-07T03:15:37.135Z,9.30
2019-05-07T03:18:07.045Z,9.30
2019-05-07T03:20:57.962Z,9.30
2019-05-07T03:23:34.088Z,9.20
2019-05-07T03:26:14.279Z,9.20
2019-05-07T03:29:09.169Z,9.20
2019-05-07T03:32:09.847Z,9.20
2019-05-07T03:34:58.705Z,9.10
2019-05-07T03:37:35.201Z,9.00
2019-05-07T03:40:04.002Z,9.00
2019-05-07T03:42:33.495Z,9.00
2019-05-07T03:45:23.086Z,9.00
2019-05-07T03:48:03.797Z,9.00
2019-05-07T03:50:33.931Z,9.00
2019-05-07T03:53:03.805Z,9.00
2019-05-07T03:55:33.961Z,9.00
2019-05-07T03:58:03.710Z,9.00
2019-05-07T04:00:33.577Z,9.00
2019-05-07T04:03:03.789Z,9.00
2019-05-07T04:05:34.386Z,9.00
2019-05-07T04:08:04.351Z,9.00
2019-05-07T04:10:34.180Z,8.90
2019-05-07T04:13:04.681Z,8.90
2019-05-07T04:15:34.669Z,8.90
2019-05-07T04:18:04.574Z,8.90
2019-05-07T04:20:34.358Z,8.80
2019-05-07T04:23:04.485Z,8.80
2019-05-07T04:25:43.305Z,8.90
2019-05-07T04:28:33.373Z,8.90
2019-05-07T04:31:03.188Z,9.00
2019-05-07T04:33:39.174Z,9.00
2019-05-07T04:36:22.763Z,9.00
2019-05-07T04:38:53.245Z,9.00
2019-05-07T04:41:23.405Z,9.10
2019-05-07T04:43:54.041Z,9.10
2019-05-07T04:46:23.695Z,9.00
2019-05-07T04:48:53.724Z,9.00
2019-05-07T04:51:33.397Z,9.00
2019-05-07T04:54:03.521Z,9.00
2019-05-07T04:56:33.612Z,9.00
2019-05-07T04:59:03.845Z,9.00
2019-05-07T05:01:36.951Z,8.90
2019-05-07T05:04:24.228Z,9.00
2019-05-07T05:06:37.044Z,9.00
2019-05-07T05:09:07.459Z,9.10
2019-05-07T05:11:37.213Z,9.00
2019-05-07T05:14:07.952Z,9.10
2019-05-07T05:16:38.052Z,9.10
2019-05-07T05:19:07.875Z,9.00
2019-05-07T05:22:01.473Z,9.10
2019-05-07T05:24:37.969Z,9.00
2019-05-07T05:27:07.759Z,9.00
2019-05-07T05:29:38.335Z,9.00
2019-05-07T05:32:08.217Z,9.00
2019-05-07T05:34:38.003Z,9.00
2019-05-07T05:37:07.787Z,9.00
2019-05-07T05:39:37.582Z,9.20
2019-05-07T05:42:16.417Z,9.30
2019-05-07T05:44:46.197Z,9.40
2019-05-07T05:47:16.024Z,9.50
2019-05-07T05:49:45.856Z,9.40
2019-05-07T05:52:34.553Z,9.50
2019-05-07T05:55:16.955Z,9.50
2019-05-07T05:58:05.638Z,9.60
2019-05-07T06:00:54.291Z,9.60
2019-05-07T06:03:52.011Z,9.50
2019-05-07T06:06:30.026Z,9.40
2019-05-07T06:09:18.741Z,9.30
2019-05-07T06:11:57.974Z,9.20
2019-05-07T06:14:42.437Z,9.30
2019-05-07T06:17:32.080Z,9.50
2019-05-07T06:20:26.955Z,9.70
2019-05-07T06:23:18.477Z,9.90
2019-05-07T06:25:48.537Z,10.10
2019-05-07T06:28:18.296Z,10.40
2019-05-07T06:30:48.115Z,10.50
2019-05-07T06:33:17.888Z,10.60
2019-05-07T06:35:47.707Z,10.70
2019-05-07T06:38:17.477Z,10.80
2019-05-07T06:41:12.294Z,10.90
2019-05-07T06:43:52.156Z,11.10
2019-05-07T06:46:23.222Z,11.20
2019-05-07T06:48:53.234Z,11.30
2019-05-07T06:51:23.074Z,11.20
2019-05-07T06:53:52.826Z,11.10
2019-05-07T06:56:23.092Z,11.10
2019-05-07T06:59:24.244Z,11.10
2019-05-07T07:02:13.013Z,11.10
2019-05-07T07:04:46.783Z,11.20
2019-05-07T07:07:37.485Z,11.40
2019-05-07T07:10:32.393Z,11.50
2019-05-07T07:13:02.450Z,11.70
2019-05-07T07:15:32.324Z,11.90
2019-05-07T07:18:03.173Z,12.00
2019-05-07T07:20:33.176Z,12.00
2019-05-07T07:23:02.967Z,12.10
2019-05-07T07:25:32.771Z,12.20
2019-05-07T07:28:02.846Z,12.20
2019-05-07T07:30:45.853Z,12.00
2019-05-07T07:33:16.436Z,11.80
2019-05-07T07:35:46.310Z,11.70
2019-05-07T07:38:35.508Z,11.50
2019-05-07T07:41:35.678Z,11.60
2019-05-07T07:44:05.800Z,11.80
2019-05-07T07:46:35.598Z,12.00
2019-05-07T07:49:10.925Z,12.10
2019-05-07T07:51:41.762Z,12.10
2019-05-07T07:54:07.493Z,12.00
2019-05-07T07:56:49.949Z,11.70
2019-05-07T07:59:43.147Z,11.70
2019-05-07T08:02:22.898Z,11.90
2019-05-07T08:04:52.814Z,12.00
2019-05-07T08:07:22.951Z,11.90
2019-05-07T08:09:52.900Z,11.90
2019-05-07T08:12:22.640Z,11.70
2019-05-07T08:14:52.603Z,11.50
2019-05-07T08:17:22.626Z,11.40
2019-05-07T08:19:52.547Z,11.40
2019-05-07T08:22:22.795Z,11.70
2019-05-07T08:24:52.680Z,12.20
2019-05-07T08:27:22.452Z,12.60
2019-05-07T08:29:52.590Z,12.90
2019-05-07T08:32:44.384Z,13.20
2019-05-07T08:35:25.878Z,13.30
2019-05-07T08:37:54.505Z,13.30
2019-05-07T08:40:24.278Z,13.40
2019-05-07T08:42:54.671Z,13.50
2019-05-07T08:45:43.194Z,13.70
2019-05-07T08:48:21.715Z,13.80
2019-05-07T08:50:52.522Z,13.90
2019-05-07T08:53:22.588Z,13.60
2019-05-07T08:55:52.706Z,13.40
2019-05-07T08:58:22.595Z,13.50
2019-05-07T09:00:52.465Z,13.70
2019-05-07T09:03:39.699Z,14.10
2019-05-07T09:06:11.283Z,14.20
2019-05-07T09:08:43.507Z,14.60
2019-05-07T09:11:13.355Z,14.60
2019-05-07T09:13:43.435Z,14.90
2019-05-07T09:16:13.228Z,15.10
2019-05-07T09:18:43.005Z,15.20
2019-05-07T09:21:12.819Z,15.10
2019-05-07T09:23:42.672Z,15.10
2019-05-07T09:26:14.541Z,15.20
2019-05-07T09:29:12.373Z,15.00
2019-05-07T09:31:59.844Z,14.90
2019-05-07T09:34:32.686Z,14.60
2019-05-07T09:37:04.231Z,14.30
2019-05-07T09:39:32.823Z,14.10
2019-05-07T09:42:02.649Z,13.90
2019-05-07T09:44:32.569Z,14.00
2019-05-07T09:47:02.713Z,14.40
2019-05-07T09:49:32.774Z,14.80
2019-05-07T09:52:05.659Z,15.30
2019-05-07T09:54:34.085Z,15.70
2019-05-07T09:57:03.895Z,15.90
2019-05-07T09:59:33.664Z,15.90
2019-05-07T10:02:03.715Z,15.90
2019-05-07T10:04:33.552Z,16.00
2019-05-07T10:07:03.569Z,16.30
2019-05-07T10:09:33.454Z,16.50
2019-05-07T10:12:22.337Z,16.30
2019-05-07T10:14:52.285Z,16.30
2019-05-07T10:17:28.837Z,16.20
2019-05-07T10:19:58.565Z,16.40
2019-05-07T10:22:28.498Z,16.50
2019-05-07T10:24:58.311Z,16.50
2019-05-07T10:27:28.188Z,16.20
2019-05-07T10:29:58.514Z,16.00
2019-05-07T10:32:28.334Z,15.60
2019-05-07T10:34:58.126Z,15.30
2019-05-07T10:37:27.960Z,15.00
2019-05-07T10:39:57.708Z,15.10
2019-05-07T10:42:27.627Z,15.50
2019-05-07T10:45:22.196Z,15.70
2019-05-07T10:48:04.467Z,16.10
2019-05-07T10:50:39.015Z,16.50
2019-05-07T10:53:06.161Z,16.80
2019-05-07T10:55:35.994Z,17.20
2019-05-07T10:58:05.895Z,17.60
2019-05-07T11:00:36.119Z,17.60
2019-05-07T11:03:06.116Z,17.20
2019-05-07T11:05:36.013Z,16.70
2019-05-07T11:08:05.914Z,16.40
2019-05-07T11:10:35.701Z,16.10
2019-05-07T11:13:05.439Z,15.70
2019-05-07T11:15:35.468Z,15.70
2019-05-07T11:18:13.379Z,16.10
2019-05-07T11:20:49.865Z,16.00
2019-05-07T11:23:14.730Z,15.90
2019-05-07T11:25:44.507Z,16.20
2019-05-07T11:28:14.252Z,16.20
2019-05-07T11:30:44.555Z,16.10
2019-05-07T11:33:14.319Z,15.80
2019-05-07T11:35:44.129Z,15.50
2019-05-07T11:38:20.793Z,15.50
2019-05-07T11:40:45.332Z,15.70
2019-05-07T11:43:34.103Z,16.10
2019-05-07T11:46:32.788Z,16.60
2019-05-07T11:49:08.883Z,16.90
2019-05-07T11:51:47.297Z,17.20
2019-05-07T11:54:17.032Z,17.40
2019-05-07T11:56:46.843Z,17.80
2019-05-07T11:59:16.673Z,18.00
2019-05-07T12:01:49.677Z,18.10
2019-05-07T12:04:19.512Z,18.30
2019-05-07T12:06:49.253Z,18.40
2019-05-07T12:09:19.039Z,18.40
2019-05-07T12:11:48.803Z,18.30
2019-05-07T12:14:28.893Z,18.00
2019-05-07T12:16:50.030Z,17.80
2019-05-07T12:19:19.843Z,17.30
2019-05-07T12:21:49.588Z,17.00
2019-05-07T12:24:19.421Z,16.80
2019-05-07T12:26:49.155Z,16.60
2019-05-07T12:29:18.970Z,16.40
2019-05-07T12:32:13.733Z,16.30
2019-05-07T12:34:47.707Z,16.20
2019-05-07T12:37:17.523Z,16.50
2019-05-07T12:39:47.300Z,16.90
2019-05-07T12:42:17.079Z,17.20
2019-05-07T12:44:46.876Z,17.00
2019-05-07T12:47:16.646Z,16.80
2019-05-07T12:49:46.436Z,16.70
2019-05-07T12:52:34.323Z,16.90
2019-05-07T12:55:19.147Z,17.20
2019-05-07T12:57:48.968Z,17.30
2019-05-07T13:00:36.622Z,17.00
2019-05-07T13:03:21.842Z,16.90
2019-05-07T13:05:52.138Z,16.70
2019-05-07T13:08:22.990Z,16.80
2019-05-07T13:10:53.082Z,17.00
2019-05-07T13:13:23.014Z,17.10
2019-05-07T13:15:52.747Z,16.90
2019-05-07T13:18:22.692Z,16.80
2019-05-07T13:20:52.569Z,16.70
2019-05-07T13:23:22.586Z,16.70
2019-05-07T13:25:52.851Z,16.80
2019-05-07T13:28:22.780Z,17.10
2019-05-07T13:30:53.654Z,17.40
2019-05-07T13:33:24.247Z,17.30
2019-05-07T13:35:55.253Z,17.50
2019-05-07T13:38:37.055Z,17.70
2019-05-07T13:41:34.993Z,18.00
2019-05-07T13:44:26.889Z,18.10
2019-05-07T13:47:14.840Z,18.10
2019-05-07T13:49:45.379Z,17.80
2019-05-07T13:52:16.240Z,17.50
2019-05-07T13:54:47.523Z,17.30
2019-05-07T13:57:17.966Z,17.00
2019-05-07T13:59:48.358Z,16.90
2019-05-07T14:02:18.670Z,16.70
2019-05-07T14:04:48.396Z,16.60
2019-05-07T14:07:18.459Z,16.60
2019-05-07T14:09:48.340Z,16.60
2019-05-07T14:12:18.804Z,16.70
2019-05-07T14:14:49.156Z,16.80
2019-05-07T14:17:19.420Z,16.80
2019-05-07T14:19:49.235Z,16.90
2019-05-07T14:22:19.402Z,17.00
2019-05-07T14:24:49.364Z,17.10
2019-05-07T14:27:19.229Z,17.10
2019-05-07T14:29:51.768Z,17.20
2019-05-07T14:32:46.800Z,17.10
2019-05-07T14:35:44.645Z,16.90
2019-05-07T14:38:36.122Z,17.10
2019-05-07T14:41:04.913Z,17.20
2019-05-07T14:43:41.811Z,17.10
2019-05-07T14:46:12.039Z,16.90
2019-05-07T14:48:43.874Z,16.60
2019-05-07T14:51:13.672Z,16.30
2019-05-07T14:53:43.675Z,16.20
2019-05-07T14:56:14.288Z,16.20
2019-05-07T14:58:44.992Z,16.20
2019-05-07T15:01:15.106Z,16.40
2019-05-07T15:03:44.874Z,16.50
2019-05-07T15:06:15.001Z,16.40
2019-05-07T15:08:44.913Z,16.50
2019-05-07T15:11:15.086Z,16.60
2019-05-07T15:13:45.229Z,16.80
2019-05-07T15:16:16.428Z,16.90
2019-05-07T15:18:54.583Z,16.70
2019-05-07T15:21:25.777Z,16.60
2019-05-07T15:23:55.674Z,16.40
2019-05-07T15:26:26.436Z,16.40
2019-05-07T15:29:02.057Z,16.20
2019-05-07T15:31:51.717Z,16.10
2019-05-07T15:34:22.336Z,16.20
2019-05-07T15:36:54.307Z,16.40
2019-05-07T15:39:26.422Z,16.70
2019-05-07T15:41:58.815Z,17.00
2019-05-07T15:44:30.541Z,17.10
2019-05-07T15:47:05.519Z,17.10
2019-05-07T15:49:37.544Z,17.20
2019-05-07T15:52:15.205Z,17.10
2019-05-07T15:54:47.187Z,17.20
2019-05-07T15:57:23.463Z,17.30
2019-05-07T16:00:05.684Z,17.20
2019-05-07T16:02:40.842Z,17.20
2019-05-07T16:05:12.787Z,17.10
2019-05-07T16:07:46.167Z,17.00
2019-05-07T16:10:18.476Z,16.90
2019-05-07T16:12:52.927Z,16.70
2019-05-07T16:15:25.010Z,16.60
2019-05-07T16:18:03.741Z,16.50
2019-05-07T16:20:36.145Z,16.40
2019-05-07T16:23:14.867Z,16.40
2019-05-07T16:25:42.342Z,16.20
2019-05-07T16:28:15.263Z,16.10
2019-05-07T16:30:47.573Z,16.10
2019-05-07T16:33:20.065Z,16.10
2019-05-07T16:35:53.697Z,16.00
2019-05-07T16:38:26.190Z,16.00
2019-05-07T16:40:58.303Z,15.90
2019-05-07T16:43:30.092Z,15.80
2019-05-07T16:46:02.421Z,15.70
2019-05-07T16:48:35.567Z,15.80
2019-05-07T16:51:08.019Z,15.70
2019-05-07T16:53:42.677Z,15.70
2019-05-07T16:56:15.175Z,15.70
2019-05-07T16:59:01.722Z,15.80
2019-05-07T17:01:34.217Z,15.90
2019-05-07T17:04:06.697Z,16.00
2019-05-07T17:06:39.130Z,16.00
2019-05-07T17:09:15.584Z,16.00
2019-05-07T17:11:49.189Z,16.00
2019-05-07T17:14:21.597Z,15.90
2019-05-07T17:16:53.813Z,16.00
2019-05-07T17:19:26.275Z,16.00
2019-05-07T17:21:59.465Z,16.00
2019-05-07T17:24:32.996Z,16.00
2019-05-07T17:27:05.704Z,15.90
2019-05-07T17:29:38.248Z,15.90
2019-05-07T17:32:12.262Z,15.90
2019-05-07T17:34:44.597Z,15.90
2019-05-07T17:37:18.310Z,15.80
2019-05-07T17:39:52.284Z,15.80
2019-05-07T17:42:24.696Z,15.70
2019-05-07T17:44:59.556Z,15.60
2019-05-07T17:47:32.579Z,15.50
2019-05-07T17:50:06.859Z,15.40
2019-05-07T17:52:39.266Z,15.30
2019-05-07T17:55:13.050Z,15.20
2019-05-07T17:57:45.511Z,15.00
2019-05-07T18:00:21.953Z,14.80
2019-05-07T18:03:13.002Z,14.70
2019-05-07T18:05:43.326Z,14.50
2019-05-07T18:08:17.285Z,14.30
2019-05-07T18:10:49.699Z,14.10
2019-05-07T18:13:24.151Z,14.00
2019-05-07T18:16:00.223Z,14.00
2019-05-07T18:18:32.949Z,13.80
2019-05-07T18:21:05.508Z,13.70
2019-05-07T18:23:37.890Z,13.60
2019-05-07T18:26:20.598Z,13.40
2019-05-07T18:28:47.684Z,13.30
2019-05-07T18:31:22.230Z,13.20
2019-05-07T18:33:59.811Z,13.00
2019-05-07T18:36:32.808Z,12.90
2019-05-07T18:39:08.455Z,12.90
2019-05-07T18:41:43.975Z,12.90
2019-05-07T18:44:16.603Z,12.80
2019-05-07T18:46:49.099Z,12.60
2019-05-07T18:49:21.593Z,12.40
2019-05-07T18:51:54.163Z,12.20
2019-05-07T18:54:31.290Z,12.10
2019-05-07T18:57:03.046Z,11.90
2019-05-07T18:59:36.715Z,11.70
2019-05-07T19:02:09.764Z,11.70
2019-05-07T19:04:43.572Z,11.70
2019-05-07T19:07:16.997Z,11.70
2019-05-07T19:09:49.379Z,11.60
2019-05-07T19:12:25.469Z,11.50
2019-05-07T19:15:02.914Z,11.30
2019-05-07T19:17:35.753Z,11.20
2019-05-07T19:20:08.740Z,11.10
2019-05-07T19:22:51.863Z,11.10
2019-05-07T19:25:24.753Z,11.00
2019-05-07T19:27:57.253Z,10.90
2019-05-07T19:30:32.428Z,10.90
2019-05-07T19:33:04.970Z,10.80
2019-05-07T19:35:38.879Z,10.70
2019-05-07T19:38:12.723Z,10.70
2019-05-07T19:40:48.166Z,10.60
2019-05-07T19:43:20.735Z,10.60
2019-05-07T19:45:53.210Z,10.50
2019-05-07T19:48:25.867Z,10.40
2019-05-07T19:50:58.282Z,10.40
2019-05-07T19:53:32.665Z,10.30
2019-05-07T19:56:23.856Z,10.30
2019-05-07T19:58:56.387Z,10.30
2019-05-07T20:01:39.695Z,10.20
2019-05-07T20:04:15.301Z,10.20
2019-05-07T20:06:47.765Z,10.10
2019-05-07T20:09:22.664Z,10.10
2019-05-07T20:11:56.495Z,10.10
2019-05-07T20:14:28.914Z,10.20
2019-05-07T20:17:01.942Z,10.20
2019-05-07T20:19:35.060Z,10.20
2019-05-07T20:22:07.408Z,10.20
2019-05-07T20:24:41.420Z,10.20
2019-05-07T20:27:13.618Z,10.10
2019-05-07T20:29:46.500Z,10.00
2019-05-07T20:32:18.876Z,10.00
2019-05-07T20:34:52.052Z,10.00
2019-05-07T20:37:24.591Z,9.90
2019-05-07T20:39:57.046Z,9.90
2019-05-07T20:42:32.392Z,9.80
2019-05-07T20:45:04.631Z,9.80
2019-05-07T20:47:36.852Z,9.90
2019-05-07T20:50:09.922Z,9.90
2019-05-07T20:52:42.635Z,9.90
2019-05-07T20:55:30.813Z,9.90
2019-05-07T20:58:03.044Z,9.80
2019-05-07T21:00:35.054Z,9.80
2019-05-07T21:03:23.838Z,9.70
2019-05-07T21:05:58.177Z,9.70
2019-05-07T21:08:31.920Z,9.60
2019-05-07T21:11:03.150Z,9.60
2019-05-07T21:13:34.975Z,9.70
2019-05-07T21:16:04.393Z,9.70
2019-05-07T21:18:34.506Z,9.70
2019-05-07T21:21:04.345Z,9.60
2019-05-07T21:23:34.216Z,9.60
2019-05-07T21:26:04.014Z,9.50
2019-05-07T21:28:33.840Z,9.50
2019-05-07T21:31:03.599Z,9.50
2019-05-07T21:33:33.389Z,9.50
2019-05-07T21:36:03.167Z,9.50
2019-05-07T21:38:33.085Z,9.50
2019-05-07T21:41:02.837Z,9.50
2019-05-07T21:43:32.784Z,9.40
2019-05-07T21:46:02.591Z,9.40
2019-05-07T21:48:32.908Z,9.40
2019-05-07T21:51:02.859Z,9.40
2019-05-07T21:53:37.871Z,9.30
2019-05-07T21:56:15.816Z,9.30
2019-05-07T21:58:54.043Z,9.30
2019-05-07T22:01:28.171Z,9.30
2019-05-07T22:04:01.730Z,9.20
2019-05-07T22:06:30.945Z,9.20
2019-05-07T22:09:02.032Z,9.10
2019-05-07T22:11:32.439Z,9.10
2019-05-07T22:14:02.379Z,9.10
2019-05-07T22:16:32.794Z,9.00
2019-05-07T22:19:02.913Z,8.90
2019-05-07T22:21:34.290Z,8.80
2019-05-07T22:24:04.539Z,8.70
2019-05-07T22:26:34.317Z,8.70
2019-05-07T22:29:04.123Z,8.60
2019-05-07T22:31:43.927Z,8.60
2019-05-07T22:34:26.750Z,8.60
2019-05-07T22:36:56.548Z,8.60
2019-05-07T22:39:26.522Z,8.60
2019-05-07T22:41:56.273Z,8.60
2019-05-07T22:44:26.509Z,8.50
2019-05-07T22:46:58.391Z,8.50
2019-05-07T22:49:28.196Z,8.50
2019-05-07T22:51:58.027Z,8.50
2019-05-07T22:54:27.769Z,8.40
2019-05-07T22:57:05.996Z,8.40
2019-05-07T22:59:35.835Z,8.40
2019-05-07T23:02:05.763Z,8.30
2019-05-07T23:04:35.575Z,8.30
2019-05-07T23:07:05.360Z,8.30
2019-05-07T23:09:35.129Z,8.30
2019-05-07T23:12:05.008Z,8.30
2019-05-07T23:14:34.748Z,8.30
2019-05-07T23:17:04.552Z,8.20
2019-05-07T23:19:34.326Z,8.20
2019-05-07T23:22:04.089Z,8.20
2019-05-07T23:24:33.881Z,8.10
2019-05-07T23:27:03.675Z,8.10
2019-05-07T23:29:33.447Z,8.10
2019-05-07T23:32:03.284Z,8.10
2019-05-07T23:34:33.014Z,8.00
2019-05-07T23:37:02.809Z,8.00
2019-05-07T23:39:34.498Z,8.00
2019-05-07T23:42:15.215Z,8.00
2019-05-07T23:44:45.038Z,7.90
2019-05-07T23:47:14.861Z,7.90
2019-05-07T23:49:44.589Z,7.90
2019-05-07T23:52:14.360Z,7.90
2019-05-07T23:54:44.120Z,7.80
2019-05-07T23:57:15.400Z,7.80
2019-05-07T23:59:45.412Z,7.70
